createdAt,value
2018-01-20T00:01:00.435Z,78.12
2018-01-20T00:02:02.933Z,78.23
2018-01-20T00:03:05.396Z,78.45
2018-01-20T00:04:08.608Z,78.45
2018-01-20T00:05:11.061Z,78.68
2018-01-20T00:06:13.523Z,78.60
2018-01-20T00:07:16.004Z,78.47
2018-01-20T00:08:18.471Z,78.68
2018-01-20T00:09:32.859Z,78.71
2018-01-20T00:10:47.105Z,78.83
2018-01-20T00:12:01.517Z,78.50
2018-01-20T00:13:03.981Z,78.89
2018-01-20T00:14:06.443Z,78.96
2018-01-20T00:15:08.897Z,78.89
2018-01-20T00:16:11.361Z,78.86
2018-01-20T00:17:16.757Z,78.82
2018-01-20T00:18:19.245Z,78.75
2018-01-20T00:19:21.696Z,79.00
2018-01-20T00:20:24.143Z,79.15
2018-01-20T00:21:26.608Z,79.20
2018-01-20T00:22:29.077Z,79.18
2018-01-20T00:23:31.557Z,79.08
2018-01-20T00:24:39.624Z,79.08
2018-01-20T00:25:42.070Z,79.23
2018-01-20T00:26:44.536Z,79.19
2018-01-20T00:27:46.981Z,79.28
2018-01-20T00:28:49.463Z,79.17
2018-01-20T00:29:51.925Z,79.10
2018-01-20T00:30:54.392Z,79.23
2018-01-20T00:31:56.833Z,79.26
2018-01-20T00:32:59.292Z,79.33
2018-01-20T00:34:01.780Z,79.25
2018-01-20T00:35:04.247Z,79.16
2018-01-20T00:36:06.702Z,79.37
2018-01-20T00:37:09.164Z,79.21
2018-01-20T00:38:11.609Z,79.16
2018-01-20T00:39:14.091Z,79.19
2018-01-20T00:40:16.550Z,79.15
2018-01-20T00:41:19.011Z,79.21
2018-01-20T00:42:21.463Z,79.16
2018-01-20T00:43:23.910Z,79.21
2018-01-20T00:44:26.378Z,79.22
2018-01-20T00:45:28.822Z,79.22
2018-01-20T00:46:31.296Z,79.04
2018-01-20T00:47:33.760Z,79.29
2018-01-20T00:48:36.209Z,79.46
2018-01-20T00:49:38.673Z,79.33
2018-01-20T00:50:41.137Z,79.30
2018-01-20T00:51:43.608Z,79.35
2018-01-20T00:52:46.050Z,79.47
2018-01-20T00:53:48.518Z,79.46
2018-01-20T00:54:50.994Z,79.38
2018-01-20T00:55:53.446Z,79.45
2018-01-20T00:56:55.916Z,79.66
2018-01-20T00:57:58.381Z,79.51
2018-01-20T00:59:00.850Z,79.60
2018-01-20T01:00:03.337Z,79.47
2018-01-20T01:01:05.782Z,79.46
2018-01-20T01:02:08.228Z,79.53
2018-01-20T01:03:10.691Z,79.33
2018-01-20T01:04:13.165Z,79.28
2018-01-20T01:05:15.642Z,79.35
2018-01-20T01:06:18.090Z,79.34
2018-01-20T01:07:20.533Z,79.29
2018-01-20T01:08:22.994Z,79.33
2018-01-20T01:09:25.476Z,79.32
2018-01-20T01:10:27.964Z,79.32
2018-01-20T01:11:30.414Z,79.47
2018-01-20T01:12:32.891Z,79.52
2018-01-20T01:13:35.356Z,79.45
2018-01-20T01:14:37.836Z,79.49
2018-01-20T01:15:40.305Z,79.34
2018-01-20T01:16:42.802Z,79.53
2018-01-20T01:17:45.363Z,79.60
2018-01-20T01:18:47.828Z,79.22
2018-01-20T01:19:50.296Z,79.42
2018-01-20T01:20:52.788Z,79.22
2018-01-20T01:21:55.242Z,79.28
2018-01-20T01:22:57.711Z,79.54
2018-01-20T01:24:00.167Z,79.57
2018-01-20T01:25:02.636Z,79.70
2018-01-20T01:26:05.128Z,79.60
2018-01-20T01:27:07.574Z,79.67
2018-01-20T01:28:10.027Z,79.74
2018-01-20T01:29:12.495Z,79.52
2018-01-20T01:30:14.972Z,79.65
2018-01-20T01:31:17.442Z,79.67
2018-01-20T01:32:19.895Z,79.70
2018-01-20T01:33:22.368Z,79.81
2018-01-20T01:34:24.822Z,79.86
2018-01-20T01:35:27.261Z,79.67
2018-01-20T01:36:29.754Z,79.71
2018-01-20T01:37:32.198Z,79.72
2018-01-20T01:38:34.641Z,79.65
2018-01-20T01:39:37.086Z,79.59
2018-01-20T01:40:39.545Z,79.62
2018-01-20T01:41:42.028Z,79.60
2018-01-20T01:42:44.488Z,79.69
2018-01-20T01:43:46.937Z,79.71
2018-01-20T01:44:49.400Z,79.83
2018-01-20T01:45:51.875Z,79.76
2018-01-20T01:46:54.372Z,79.82
2018-01-20T01:47:56.833Z,79.85
2018-01-20T01:48:59.290Z,79.71
2018-01-20T01:50:01.741Z,79.67
2018-01-20T01:51:04.207Z,79.54
2018-01-20T01:52:06.686Z,79.59
2018-01-20T01:53:09.133Z,79.51
2018-01-20T01:54:11.604Z,79.41
2018-01-20T01:55:14.069Z,79.01
2018-01-20T01:56:16.518Z,79.05
2018-01-20T01:57:19.015Z,79.21
2018-01-20T01:58:21.487Z,79.06
2018-01-20T01:59:23.948Z,78.92
2018-01-20T02:00:26.412Z,78.92
2018-01-20T02:01:28.858Z,78.93
2018-01-20T02:02:31.348Z,78.85
2018-01-20T02:03:33.815Z,78.46
2018-01-20T02:04:36.266Z,78.62
2018-01-20T02:05:38.725Z,78.67
2018-01-20T02:06:41.173Z,78.87
2018-01-20T02:07:43.660Z,78.61
2018-01-20T02:08:46.117Z,78.79
2018-01-20T02:09:48.566Z,78.78
2018-01-20T02:10:51.018Z,78.85
2018-01-20T02:11:53.477Z,78.85
2018-01-20T02:12:55.956Z,78.66
2018-01-20T02:13:58.402Z,78.72
2018-01-20T02:15:00.859Z,78.67
2018-01-20T02:16:03.301Z,78.72
2018-01-20T02:17:05.745Z,78.75
2018-01-20T02:18:08.232Z,79.06
2018-01-20T02:19:10.698Z,79.14
2018-01-20T02:20:13.146Z,79.03
2018-01-20T02:21:15.692Z,78.86
2018-01-20T02:22:18.147Z,79.07
2018-01-20T02:23:20.622Z,78.88
2018-01-20T02:24:23.091Z,78.81
2018-01-20T02:25:25.581Z,78.86
2018-01-20T02:26:28.024Z,78.78
2018-01-20T02:27:30.484Z,78.78
2018-01-20T02:28:32.972Z,78.80
2018-01-20T02:29:35.431Z,78.80
2018-01-20T02:30:37.884Z,78.65
2018-01-20T02:31:40.337Z,78.39
2018-01-20T02:32:43.556Z,78.48
2018-01-20T02:33:46.037Z,78.72
2018-01-20T02:34:48.483Z,78.72
2018-01-20T02:35:50.933Z,78.93
2018-01-20T02:36:53.377Z,79.08
2018-01-20T02:37:55.835Z,78.81
2018-01-20T02:38:58.308Z,78.80
2018-01-20T02:40:00.765Z,78.83
2018-01-20T02:41:03.233Z,79.01
2018-01-20T02:42:05.684Z,79.07
2018-01-20T02:43:08.139Z,79.09
2018-01-20T02:44:10.685Z,79.06
2018-01-20T02:45:13.137Z,79.40
2018-01-20T02:46:15.602Z,79.73
2018-01-20T02:47:18.050Z,79.54
2018-01-20T02:48:20.513Z,79.53
2018-01-20T02:49:23.021Z,79.38
2018-01-20T02:50:25.474Z,79.54
2018-01-20T02:51:27.929Z,79.52
2018-01-20T02:52:30.373Z,79.29
2018-01-20T02:53:32.836Z,79.40
2018-01-20T02:54:35.305Z,80.05
2018-01-20T02:55:37.754Z,79.88
2018-01-20T02:56:40.206Z,79.67
2018-01-20T02:57:42.649Z,79.94
2018-01-20T02:58:45.112Z,79.93
2018-01-20T02:59:47.603Z,80.02
2018-01-20T03:00:50.045Z,80.19
2018-01-20T03:01:52.494Z,80.27
2018-01-20T03:02:54.941Z,80.08
2018-01-20T03:03:57.383Z,79.93
2018-01-20T03:04:59.868Z,79.99
2018-01-20T03:06:02.339Z,80.04
2018-01-20T03:07:04.811Z,80.37
2018-01-20T03:08:07.277Z,80.32
2018-01-20T03:09:09.717Z,80.08
2018-01-20T03:10:12.204Z,80.26
2018-01-20T03:11:14.679Z,80.45
2018-01-20T03:12:17.133Z,80.50
2018-01-20T03:13:19.592Z,80.54
2018-01-20T03:14:22.051Z,80.63
2018-01-20T03:15:24.527Z,80.58
2018-01-20T03:16:26.990Z,80.66
2018-01-20T03:17:29.459Z,80.68
2018-01-20T03:18:31.923Z,80.69
2018-01-20T03:19:34.388Z,80.64
2018-01-20T03:20:36.850Z,80.87
2018-01-20T03:21:39.316Z,81.09
2018-01-20T03:22:41.779Z,81.19
2018-01-20T03:23:44.251Z,81.23
2018-01-20T03:24:46.694Z,81.23
2018-01-20T03:25:49.183Z,81.35
2018-01-20T03:26:51.633Z,81.24
2018-01-20T03:27:54.104Z,81.37
2018-01-20T03:28:56.567Z,81.55
2018-01-20T03:29:59.015Z,81.49
2018-01-20T03:31:01.501Z,81.61
2018-01-20T03:32:03.965Z,81.74
2018-01-20T03:33:06.410Z,81.67
2018-01-20T03:34:08.853Z,81.69
2018-01-20T03:35:11.308Z,81.83
2018-01-20T03:36:13.792Z,81.87
2018-01-20T03:37:16.246Z,82.08
2018-01-20T03:38:18.712Z,82.11
2018-01-20T03:39:21.157Z,82.17
2018-01-20T03:40:23.601Z,82.19
2018-01-20T03:41:26.084Z,82.25
2018-01-20T03:42:28.543Z,82.37
2018-01-20T03:43:30.986Z,82.18
2018-01-20T03:44:33.437Z,82.16
2018-01-20T03:45:35.877Z,82.08
2018-01-20T03:46:38.341Z,82.01
2018-01-20T03:47:40.786Z,81.94
2018-01-20T03:48:43.226Z,81.85
2018-01-20T03:49:45.669Z,82.08
2018-01-20T03:50:48.131Z,82.29
2018-01-20T03:51:50.598Z,82.05
2018-01-20T03:52:53.080Z,82.25
2018-01-20T03:53:55.530Z,82.04
2018-01-20T03:54:58.012Z,81.88
2018-01-20T03:56:00.472Z,81.79
2018-01-20T03:57:02.950Z,81.76
2018-01-20T03:58:05.398Z,81.67
2018-01-20T03:59:07.844Z,81.76
2018-01-20T04:00:10.299Z,81.70
2018-01-20T04:01:12.742Z,81.79
2018-01-20T04:02:15.317Z,81.82
2018-01-20T04:03:17.770Z,81.95
2018-01-20T04:04:20.230Z,81.91
2018-01-20T04:05:22.702Z,81.87
2018-01-20T04:06:25.157Z,81.70
2018-01-20T04:07:27.630Z,81.62
2018-01-20T04:08:30.087Z,81.56
2018-01-20T04:09:32.553Z,81.56
2018-01-20T04:10:35.020Z,81.66
2018-01-20T04:11:37.480Z,81.61
2018-01-20T04:12:39.953Z,81.50
2018-01-20T04:13:42.422Z,81.44
2018-01-20T04:14:44.896Z,81.41
2018-01-20T04:15:47.353Z,81.40
2018-01-20T04:16:49.823Z,81.33
2018-01-20T04:17:52.308Z,81.40
2018-01-20T04:18:54.808Z,81.43
2018-01-20T04:19:57.281Z,81.72
2018-01-20T04:20:59.743Z,81.71
2018-01-20T04:22:02.217Z,81.88
2018-01-20T04:23:04.691Z,81.81
2018-01-20T04:24:07.141Z,81.53
2018-01-20T04:25:09.598Z,81.67
2018-01-20T04:26:12.064Z,81.53
2018-01-20T04:27:14.528Z,81.55
2018-01-20T04:28:16.994Z,81.44
2018-01-20T04:29:19.442Z,81.51
2018-01-20T04:30:21.893Z,81.56
2018-01-20T04:31:24.360Z,81.53
2018-01-20T04:32:26.815Z,81.72
2018-01-20T04:33:29.300Z,81.50
2018-01-20T04:34:31.767Z,81.39
2018-01-20T04:35:34.237Z,81.71
2018-01-20T04:36:36.687Z,81.47
2018-01-20T04:37:39.189Z,81.65
2018-01-20T04:38:41.687Z,81.60
2018-01-20T04:39:44.152Z,81.92
2018-01-20T04:40:46.601Z,81.83
2018-01-20T04:41:49.052Z,81.83
2018-01-20T04:42:51.502Z,81.82
2018-01-20T04:43:53.984Z,82.02
2018-01-20T04:44:56.444Z,81.91
2018-01-20T04:45:58.904Z,82.08
2018-01-20T04:47:01.368Z,82.18
2018-01-20T04:48:03.873Z,82.27
2018-01-20T04:49:06.343Z,82.35
2018-01-20T04:50:08.798Z,82.45
2018-01-20T04:51:11.246Z,82.48
2018-01-20T04:52:13.694Z,82.30
2018-01-20T04:53:16.155Z,82.26
2018-01-20T04:54:18.636Z,82.24
2018-01-20T04:55:21.100Z,82.30
2018-01-20T04:56:23.550Z,82.27
2018-01-20T04:57:26.013Z,82.49
2018-01-20T04:58:28.471Z,82.50
2018-01-20T04:59:30.960Z,82.67
2018-01-20T05:00:33.409Z,82.63
2018-01-20T05:01:35.895Z,82.49
2018-01-20T05:02:38.340Z,82.52
2018-01-20T05:03:40.789Z,82.58
2018-01-20T05:04:43.287Z,82.72
2018-01-20T05:05:45.737Z,83.02
2018-01-20T05:06:48.182Z,82.97
2018-01-20T05:07:51.580Z,82.90
2018-01-20T05:08:54.045Z,82.89
2018-01-20T05:09:56.514Z,82.88
2018-01-20T05:10:58.975Z,82.82
2018-01-20T05:12:01.424Z,82.86
2018-01-20T05:13:03.887Z,82.86
2018-01-20T05:14:06.334Z,82.96
2018-01-20T05:15:08.812Z,83.11
2018-01-20T05:16:11.283Z,82.96
2018-01-20T05:17:13.754Z,83.14
2018-01-20T05:18:16.259Z,83.08
2018-01-20T05:19:18.703Z,82.92
2018-01-20T05:20:21.188Z,82.95
2018-01-20T05:21:23.651Z,82.81
2018-01-20T05:22:26.116Z,82.67
2018-01-20T05:23:28.566Z,82.80
2018-01-20T05:24:31.014Z,83.11
2018-01-20T05:25:33.541Z,82.68
2018-01-20T05:26:35.971Z,82.66
2018-01-20T05:27:38.418Z,82.73
2018-01-20T05:28:40.875Z,82.80
2018-01-20T05:29:43.340Z,82.88
2018-01-20T05:30:45.807Z,82.97
2018-01-20T05:31:48.256Z,82.86
2018-01-20T05:32:50.697Z,83.01
2018-01-20T05:33:53.141Z,82.95
2018-01-20T05:34:55.594Z,83.00
2018-01-20T05:35:58.082Z,82.92
2018-01-20T05:37:00.538Z,82.75
2018-01-20T05:38:03.015Z,82.61
2018-01-20T05:39:05.461Z,82.48
2018-01-20T05:40:07.938Z,82.31
2018-01-20T05:41:10.414Z,82.60
2018-01-20T05:42:12.916Z,82.40
2018-01-20T05:43:15.361Z,82.74
2018-01-20T05:44:17.824Z,82.48
2018-01-20T05:45:20.292Z,82.36
2018-01-20T05:46:22.784Z,82.26
2018-01-20T05:47:25.233Z,82.25
2018-01-20T05:48:27.696Z,82.43
2018-01-20T05:49:30.161Z,82.44
2018-01-20T05:50:32.636Z,82.50
2018-01-20T05:51:35.107Z,82.62
2018-01-20T05:52:37.574Z,82.35
2018-01-20T05:53:40.021Z,82.35
2018-01-20T05:54:42.480Z,82.38
2018-01-20T05:55:44.925Z,82.20
2018-01-20T05:56:47.415Z,82.32
2018-01-20T05:57:49.963Z,83.07
2018-01-20T05:58:52.414Z,83.04
2018-01-20T05:59:54.870Z,83.06
2018-01-20T06:00:57.329Z,82.96
2018-01-20T06:01:59.806Z,82.99
2018-01-20T06:03:02.358Z,82.95
2018-01-20T06:04:04.820Z,83.62
2018-01-20T06:05:07.275Z,83.67
2018-01-20T06:06:09.726Z,83.30
2018-01-20T06:07:12.210Z,83.14
2018-01-20T06:08:14.658Z,83.24
2018-01-20T06:09:17.121Z,83.44
2018-01-20T06:10:19.584Z,83.56
2018-01-20T06:11:22.030Z,83.51
2018-01-20T06:12:24.518Z,84.03
2018-01-20T06:13:26.988Z,84.01
2018-01-20T06:14:29.448Z,84.03
2018-01-20T06:15:31.898Z,83.71
2018-01-20T06:16:34.368Z,83.94
2018-01-20T06:17:36.856Z,84.16
2018-01-20T06:18:39.320Z,83.78
2018-01-20T06:19:41.770Z,84.28
2018-01-20T06:20:44.218Z,84.32
2018-01-20T06:21:46.659Z,84.07
2018-01-20T06:22:49.152Z,83.50
2018-01-20T06:23:51.610Z,83.34
2018-01-20T06:24:54.058Z,83.24
2018-01-20T06:25:56.505Z,83.28
2018-01-20T06:26:58.980Z,83.27
2018-01-20T06:28:01.472Z,83.56
2018-01-20T06:29:03.922Z,83.14
2018-01-20T06:30:06.380Z,83.32
2018-01-20T06:31:08.846Z,83.70
2018-01-20T06:32:11.298Z,84.03
2018-01-20T06:33:13.795Z,83.84
2018-01-20T06:34:16.250Z,83.54
2018-01-20T06:35:18.736Z,83.01
2018-01-20T06:36:21.200Z,83.22
2018-01-20T06:37:23.645Z,83.67
2018-01-20T06:38:26.114Z,83.49
2018-01-20T06:39:28.576Z,83.19
2018-01-20T06:40:31.142Z,83.18
2018-01-20T06:41:33.650Z,82.96
2018-01-20T06:42:36.080Z,83.30
2018-01-20T06:43:38.554Z,83.57
2018-01-20T06:44:41.016Z,83.51
2018-01-20T06:45:43.469Z,83.92
2018-01-20T06:46:45.949Z,84.07
2018-01-20T06:47:48.390Z,83.88
2018-01-20T06:48:50.854Z,83.58
2018-01-20T06:49:53.315Z,83.47
2018-01-20T06:50:55.767Z,83.70
2018-01-20T06:51:58.237Z,83.30
2018-01-20T06:53:00.718Z,82.92
2018-01-20T06:54:03.202Z,83.17
2018-01-20T06:55:05.662Z,83.30
2018-01-20T06:56:08.109Z,83.66
2018-01-20T06:57:10.594Z,83.72
2018-01-20T06:58:13.882Z,83.50
2018-01-20T06:59:16.376Z,83.52
2018-01-20T07:00:18.826Z,82.94
2018-01-20T07:01:21.284Z,82.74
2018-01-20T07:02:23.730Z,83.00
2018-01-20T07:03:26.178Z,82.80
2018-01-20T07:04:28.645Z,82.43
2018-01-20T07:05:31.098Z,82.15
2018-01-20T07:06:33.556Z,82.11
2018-01-20T07:07:35.998Z,82.48
2018-01-20T07:08:38.445Z,82.52
2018-01-20T07:09:40.909Z,82.35
2018-01-20T07:10:43.373Z,82.03
2018-01-20T07:11:45.818Z,82.13
2018-01-20T07:12:48.270Z,82.28
2018-01-20T07:13:50.735Z,82.58
2018-01-20T07:14:53.410Z,82.94
2018-01-20T07:15:55.894Z,82.78
2018-01-20T07:16:58.356Z,82.67
2018-01-20T07:18:00.815Z,82.35
2018-01-20T07:19:03.304Z,82.17
2018-01-20T07:20:05.773Z,82.54
2018-01-20T07:21:08.235Z,82.13
2018-01-20T07:22:10.697Z,82.11
2018-01-20T07:23:13.155Z,82.51
2018-01-20T07:24:15.607Z,82.61
2018-01-20T07:25:18.088Z,82.56
2018-01-20T07:26:20.615Z,82.65
2018-01-20T07:27:23.086Z,82.83
2018-01-20T07:28:25.551Z,82.93
2018-01-20T07:29:28.100Z,82.95
2018-01-20T07:30:30.646Z,82.96
2018-01-20T07:31:33.107Z,82.90
2018-01-20T07:32:35.565Z,82.88
2018-01-20T07:33:38.050Z,83.23
2018-01-20T07:34:40.506Z,82.56
2018-01-20T07:35:42.973Z,82.67
2018-01-20T07:36:45.432Z,82.59
2018-01-20T07:37:47.899Z,82.49
2018-01-20T07:38:50.350Z,83.15
2018-01-20T07:39:58.381Z,81.82
2018-01-20T07:41:00.867Z,82.09
2018-01-20T07:42:03.315Z,82.10
2018-01-20T07:43:05.762Z,82.46
2018-01-20T07:44:08.221Z,82.75
2018-01-20T07:45:10.680Z,82.63
2018-01-20T07:46:13.171Z,82.47
2018-01-20T07:47:15.638Z,82.46
2018-01-20T07:48:18.090Z,82.26
2018-01-20T07:49:20.551Z,82.06
2018-01-20T07:50:22.999Z,82.11
2018-01-20T07:51:25.515Z,81.72
2018-01-20T07:52:28.000Z,82.14
2018-01-20T07:53:30.528Z,82.23
2018-01-20T07:54:33.000Z,81.88
2018-01-20T07:55:35.491Z,82.03
2018-01-20T07:56:38.011Z,82.19
2018-01-20T07:57:40.492Z,81.68
2018-01-20T07:58:43.144Z,81.87
2018-01-20T07:59:45.715Z,81.81
2018-01-20T08:00:48.222Z,81.63
2018-01-20T08:01:50.760Z,81.60
2018-01-20T08:02:53.240Z,81.96
2018-01-20T08:03:55.836Z,82.21
2018-01-20T08:04:58.295Z,81.44
2018-01-20T08:06:00.746Z,81.69
2018-01-20T08:07:03.230Z,81.91
2018-01-20T08:08:05.708Z,81.65
2018-01-20T08:09:08.190Z,81.38
2018-01-20T08:10:10.658Z,81.33
2018-01-20T08:11:13.125Z,81.57
2018-01-20T08:12:15.611Z,81.01
2018-01-20T08:13:18.072Z,80.95
2018-01-20T08:14:20.522Z,81.13
2018-01-20T08:15:22.996Z,81.32
2018-01-20T08:16:25.438Z,80.86
2018-01-20T08:17:27.932Z,80.42
2018-01-20T08:18:30.460Z,80.45
2018-01-20T08:19:32.920Z,80.52
2018-01-20T08:20:35.365Z,80.77
2018-01-20T08:21:37.824Z,80.88
2018-01-20T08:22:40.289Z,80.89
2018-01-20T08:23:42.739Z,81.04
2018-01-20T08:24:45.191Z,80.85
2018-01-20T08:25:47.726Z,81.07
2018-01-20T08:26:50.173Z,80.71
2018-01-20T08:27:52.652Z,80.80
2018-01-20T08:28:55.099Z,80.99
2018-01-20T08:29:57.562Z,80.66
2018-01-20T08:31:00.032Z,80.51
2018-01-20T08:32:02.473Z,80.25
2018-01-20T08:33:04.953Z,80.26
2018-01-20T08:34:07.422Z,80.23
2018-01-20T08:35:09.869Z,80.25
2018-01-20T08:36:12.362Z,80.26
2018-01-20T08:37:14.816Z,80.49
2018-01-20T08:38:17.335Z,80.18
2018-01-20T08:39:19.777Z,79.91
2018-01-20T08:40:22.240Z,79.63
2018-01-20T08:41:24.717Z,79.67
2018-01-20T08:42:27.170Z,79.76
2018-01-20T08:43:29.637Z,79.58
2018-01-20T08:44:32.089Z,79.45
2018-01-20T08:45:34.574Z,79.35
2018-01-20T08:46:37.022Z,79.31
2018-01-20T08:47:39.480Z,79.61
2018-01-20T08:48:41.964Z,79.33
2018-01-20T08:49:44.406Z,79.36
2018-01-20T08:50:46.865Z,79.21
2018-01-20T08:51:49.324Z,79.38
2018-01-20T08:52:51.778Z,79.24
2018-01-20T08:53:54.264Z,78.76
2018-01-20T08:54:56.720Z,78.87
2018-01-20T08:55:59.185Z,79.14
2018-01-20T08:57:01.637Z,79.16
2018-01-20T08:58:04.088Z,79.22
2018-01-20T08:59:06.615Z,79.03
2018-01-20T09:00:09.068Z,78.84
2018-01-20T09:01:11.544Z,79.16
2018-01-20T09:02:14.089Z,79.03
2018-01-20T09:03:16.561Z,78.96
2018-01-20T09:04:19.040Z,78.84
2018-01-20T09:05:21.732Z,78.70
2018-01-20T09:06:24.178Z,78.42
2018-01-20T09:07:26.644Z,78.67
2018-01-20T09:08:29.131Z,78.18
2018-01-20T09:09:31.633Z,78.35
2018-01-20T09:10:34.096Z,78.11
2018-01-20T09:11:36.552Z,77.55
2018-01-20T09:12:39.010Z,76.71
2018-01-20T09:13:41.476Z,76.64
2018-01-20T09:14:43.996Z,76.93
2018-01-20T09:15:46.464Z,76.86
2018-01-20T09:16:48.942Z,76.75
2018-01-20T09:17:51.388Z,75.97
2018-01-20T09:18:53.834Z,75.85
2018-01-20T09:19:56.320Z,75.10
2018-01-20T09:20:58.792Z,74.97
2018-01-20T09:22:01.300Z,74.06
2018-01-20T09:23:03.760Z,74.05
2018-01-20T09:24:06.295Z,74.25
2018-01-20T09:25:08.771Z,74.13
2018-01-20T09:26:11.246Z,74.67
2018-01-20T09:27:13.709Z,74.29
2018-01-20T09:28:16.154Z,74.82
2018-01-20T09:29:18.622Z,75.59
2018-01-20T09:30:21.152Z,75.67
2018-01-20T09:31:23.612Z,75.50
2018-01-20T09:32:26.077Z,75.45
2018-01-20T09:33:28.537Z,75.65
2018-01-20T09:34:30.997Z,76.11
2018-01-20T09:35:33.524Z,75.96
2018-01-20T09:36:35.984Z,76.32
2018-01-20T09:37:38.456Z,76.22
2018-01-20T09:38:40.915Z,76.70
2018-01-20T09:39:43.377Z,76.68
2018-01-20T09:40:45.869Z,76.21
2018-01-20T09:41:48.327Z,75.77
2018-01-20T09:42:50.793Z,76.04
2018-01-20T09:43:53.241Z,76.57
2018-01-20T09:44:55.700Z,76.70
2018-01-20T09:45:58.195Z,76.80
2018-01-20T09:47:00.660Z,76.36
2018-01-20T09:48:03.125Z,76.71
2018-01-20T09:49:05.578Z,76.52
2018-01-20T09:50:08.074Z,76.50
2018-01-20T09:51:10.543Z,75.98
2018-01-20T09:52:12.988Z,75.97
2018-01-20T09:53:15.442Z,75.30
2018-01-20T09:54:17.894Z,75.61
2018-01-20T09:55:20.368Z,75.32
2018-01-20T09:56:22.855Z,75.42
2018-01-20T09:57:25.325Z,74.97
2018-01-20T09:58:27.774Z,74.66
2018-01-20T09:59:30.225Z,74.54
2018-01-20T10:00:32.674Z,74.76
2018-01-20T10:01:35.191Z,74.33
2018-01-20T10:02:37.642Z,74.72
2018-01-20T10:03:40.085Z,73.46
2018-01-20T10:04:42.577Z,73.08
2018-01-20T10:05:45.040Z,73.04
2018-01-20T10:06:47.536Z,73.06
2018-01-20T10:07:49.986Z,72.50
2018-01-20T10:08:52.429Z,71.40
2018-01-20T10:09:54.874Z,71.31
2018-01-20T10:10:57.326Z,70.00
2018-01-20T10:11:59.793Z,68.89
2018-01-20T10:13:02.249Z,68.01
2018-01-20T10:14:04.776Z,68.73
2018-01-20T10:15:07.262Z,69.37
2018-01-20T10:16:09.765Z,70.16
2018-01-20T10:17:12.252Z,70.32
2018-01-20T10:18:14.720Z,70.70
2018-01-20T10:19:17.166Z,71.50
2018-01-20T10:20:19.646Z,71.47
2018-01-20T10:21:22.113Z,72.05
2018-01-20T10:22:24.604Z,72.37
2018-01-20T10:23:27.049Z,72.84
2018-01-20T10:24:29.504Z,73.29
2018-01-20T10:25:31.967Z,73.56
2018-01-20T10:26:34.432Z,73.76
2018-01-20T10:27:36.916Z,74.21
2018-01-20T10:28:39.368Z,73.70
2018-01-20T10:29:41.818Z,73.68
2018-01-20T10:30:44.266Z,73.56
2018-01-20T10:31:46.729Z,73.97
2018-01-20T10:32:49.212Z,74.08
2018-01-20T10:33:51.696Z,73.98
2018-01-20T10:34:54.150Z,73.91
2018-01-20T10:35:56.607Z,74.06
2018-01-20T10:36:59.072Z,74.26
2018-01-20T10:38:01.544Z,74.48
2018-01-20T10:39:04.017Z,73.80
2018-01-20T10:40:06.538Z,73.73
2018-01-20T10:41:08.986Z,73.97
2018-01-20T10:42:11.437Z,74.26
2018-01-20T10:43:13.921Z,74.35
2018-01-20T10:44:16.371Z,74.33
2018-01-20T10:45:18.828Z,74.49
2018-01-20T10:46:21.295Z,74.49
2018-01-20T10:47:23.742Z,74.44
2018-01-20T10:48:26.243Z,74.75
2018-01-20T10:49:28.698Z,74.84
2018-01-20T10:50:31.141Z,74.22
2018-01-20T10:51:33.604Z,74.34
2018-01-20T10:52:36.046Z,73.66
2018-01-20T10:53:38.532Z,73.89
2018-01-20T10:54:40.980Z,74.30
2018-01-20T10:55:43.436Z,74.20
2018-01-20T10:56:46.004Z,74.12
2018-01-20T10:57:48.857Z,74.41
2018-01-20T10:58:51.329Z,74.39
2018-01-20T10:59:53.774Z,74.82
2018-01-20T11:00:56.234Z,74.37
2018-01-20T11:01:58.686Z,74.53
2018-01-20T11:03:01.150Z,74.33
2018-01-20T11:04:03.638Z,75.11
2018-01-20T11:05:06.095Z,74.69
2018-01-20T11:06:08.564Z,74.88
2018-01-20T11:07:11.048Z,74.80
2018-01-20T11:08:13.494Z,75.13
2018-01-20T11:09:15.977Z,75.20
2018-01-20T11:10:18.459Z,74.80
2018-01-20T11:11:20.915Z,75.41
2018-01-20T11:12:23.510Z,75.56
2018-01-20T11:13:25.958Z,75.83
2018-01-20T11:14:28.461Z,76.11
2018-01-20T11:15:30.944Z,76.32
2018-01-20T11:16:33.477Z,76.42
2018-01-20T11:17:36.148Z,77.21
2018-01-20T11:18:38.615Z,77.17
2018-01-20T11:19:41.096Z,78.26
2018-01-20T11:20:43.561Z,77.81
2018-01-20T11:21:46.020Z,78.44
2018-01-20T11:22:48.465Z,79.32
2018-01-20T11:23:50.937Z,79.35
2018-01-20T11:24:53.421Z,80.40
2018-01-20T11:25:55.883Z,80.30
2018-01-20T11:26:58.349Z,79.93
2018-01-20T11:28:00.813Z,80.53
2018-01-20T11:29:03.266Z,80.98
2018-01-20T11:30:05.739Z,81.54
2018-01-20T11:31:08.196Z,82.55
2018-01-20T11:32:10.660Z,82.84
2018-01-20T11:33:13.123Z,82.91
2018-01-20T11:34:15.600Z,82.38
2018-01-20T11:35:18.074Z,82.79
2018-01-20T11:36:20.540Z,82.26
2018-01-20T11:37:23.026Z,82.45
2018-01-20T11:38:25.474Z,82.71
2018-01-20T11:39:27.996Z,83.78
2018-01-20T11:40:30.500Z,83.98
2018-01-20T11:41:32.964Z,84.30
2018-01-20T11:42:35.428Z,84.44
2018-01-20T11:43:37.988Z,84.83
2018-01-20T11:44:40.449Z,84.48
2018-01-20T11:45:42.927Z,84.76
2018-01-20T11:46:45.434Z,85.42
2018-01-20T11:47:47.903Z,84.65
2018-01-20T11:48:50.353Z,85.26
2018-01-20T11:49:52.820Z,85.73
2018-01-20T11:50:55.304Z,85.83
2018-01-20T11:51:57.782Z,86.50
2018-01-20T11:53:00.245Z,86.42
2018-01-20T11:54:02.690Z,86.74
2018-01-20T11:55:05.149Z,86.34
2018-01-20T11:56:07.618Z,86.38
2018-01-20T11:57:10.074Z,86.69
2018-01-20T11:58:12.874Z,85.86
2018-01-20T11:59:15.347Z,86.42
2018-01-20T12:00:17.818Z,86.79
2018-01-20T12:01:20.277Z,86.90
2018-01-20T12:02:22.744Z,87.80
2018-01-20T12:03:25.230Z,87.92
2018-01-20T12:04:27.761Z,88.10
2018-01-20T12:05:30.226Z,87.74
2018-01-20T12:06:32.686Z,87.75
2018-01-20T12:07:35.138Z,88.24
2018-01-20T12:08:37.612Z,88.52
2018-01-20T12:09:40.092Z,88.23
2018-01-20T12:10:42.576Z,88.51
2018-01-20T12:11:45.037Z,88.57
2018-01-20T12:12:47.494Z,88.48
2018-01-20T12:13:49.980Z,88.36
2018-01-20T12:14:52.438Z,88.13
2018-01-20T12:15:54.915Z,88.35
2018-01-20T12:16:57.448Z,87.91
2018-01-20T12:17:59.920Z,88.16
2018-01-20T12:19:02.374Z,87.47
2018-01-20T12:20:04.840Z,87.14
2018-01-20T12:21:07.326Z,87.47
2018-01-20T12:22:09.774Z,87.71
2018-01-20T12:23:12.230Z,87.60
2018-01-20T12:24:14.669Z,87.85
2018-01-20T12:25:17.148Z,88.65
2018-01-20T12:26:19.617Z,88.44
2018-01-20T12:27:22.061Z,88.20
2018-01-20T12:28:24.513Z,87.99
2018-01-20T12:29:26.965Z,88.05
2018-01-20T12:30:29.501Z,87.83
2018-01-20T12:31:31.980Z,88.02
2018-01-20T12:32:34.444Z,87.91
2018-01-20T12:33:36.901Z,88.27
2018-01-20T12:34:39.350Z,88.14
2018-01-20T12:35:41.812Z,87.95
2018-01-20T12:36:44.324Z,88.09
2018-01-20T12:37:46.800Z,88.39
2018-01-20T12:38:49.254Z,88.63
2018-01-20T12:39:51.701Z,89.30
2018-01-20T12:40:54.159Z,89.00
2018-01-20T12:41:56.650Z,89.23
2018-01-20T12:42:59.101Z,89.46
2018-01-20T12:44:01.565Z,89.00
2018-01-20T12:45:04.049Z,89.43
2018-01-20T12:46:06.506Z,89.55
2018-01-20T12:47:08.988Z,89.44
2018-01-20T12:48:11.433Z,89.58
2018-01-20T12:49:13.945Z,89.93
2018-01-20T12:50:16.408Z,90.16
2018-01-20T12:51:18.866Z,89.69
2018-01-20T12:52:21.349Z,89.61
2018-01-20T12:53:23.804Z,89.85
2018-01-20T12:54:26.257Z,89.82
2018-01-20T12:55:28.702Z,90.06
2018-01-20T12:56:31.159Z,90.10
2018-01-20T12:57:33.626Z,89.89
2018-01-20T12:58:36.102Z,90.15
2018-01-20T12:59:38.594Z,89.94
2018-01-20T13:00:41.056Z,90.26
2018-01-20T13:01:43.506Z,90.47
2018-01-20T13:02:45.969Z,91.01
2018-01-20T13:03:48.460Z,90.27
2018-01-20T13:04:50.915Z,90.32
2018-01-20T13:05:53.396Z,90.17
2018-01-20T13:06:55.837Z,90.23
2018-01-20T13:07:58.320Z,90.57
2018-01-20T13:09:00.780Z,91.04
2018-01-20T13:10:03.248Z,90.87
2018-01-20T13:11:06.008Z,90.68
2018-01-20T13:12:08.524Z,90.77
2018-01-20T13:13:11.034Z,90.81
2018-01-20T13:14:13.528Z,90.82
2018-01-20T13:15:16.000Z,90.81
2018-01-20T13:16:18.469Z,90.52
2018-01-20T13:17:20.939Z,90.86
2018-01-20T13:18:23.437Z,91.21
2018-01-20T13:19:25.890Z,90.63
2018-01-20T13:20:28.427Z,90.80
2018-01-20T13:21:30.898Z,90.68
2018-01-20T13:22:33.378Z,90.75
2018-01-20T13:23:35.868Z,90.56
2018-01-20T13:24:38.372Z,90.71
2018-01-20T13:25:40.854Z,90.47